sensor_id;sensor_type;location;lat;lon;timestamp;pressure;altitude;pressure_sealevel;temperature;humidity
22872;BME280;11603;44.910;8.630;2023-02-16T00:01:28;101878.56;;;9.84;100.00
22872;BME280;11603;44.910;8.630;2023-02-16T00:03:55;101867.13;;;9.81;100.00
22872;BME280;11603;44.910;8.630;2023-02-16T00:06:22;101876.03;;;9.81;100.00
22872;BME280;11603;44.910;8.630;2023-02-16T00:08:49;101864.13;;;9.66;100.00
22872;BME280;11603;44.910;8.630;2023-02-16T00:14:06;101872.59;;;9.54;100.00
22872;BME280;11603;44.910;8.630;2023-02-16T00:16:33;101868.56;;;9.43;100.00
22872;BME280;11603;44.910;8.630;2023-02-16T00:18:58;101878.56;;;9.38;100.00
22872;BME280;11603;44.910;8.630;2023-02-16T00:21:24;101877.84;;;9.32;100.00
22872;BME280;11603;44.910;8.630;2023-02-16T00:23:50;101871.03;;;9.25;100.00
22872;BME280;11603;44.910;8.630;2023-02-16T00:26:23;101873.50;;;9.30;100.00
22872;BME280;11603;44.910;8.630;2023-02-16T00:28:56;101869.28;;;9.24;100.00
22872;BME280;11603;44.910;8.630;2023-02-16T00:31:26;101871.09;;;9.22;100.00
22872;BME280;11603;44.910;8.630;2023-02-16T00:33:53;101860.34;;;9.25;100.00
22872;BME280;11603;44.910;8.630;2023-02-16T00:36:19;101862.13;;;9.25;100.00
22872;BME280;11603;44.910;8.630;2023-02-16T00:38:45;101861.31;;;9.23;100.00
22872;BME280;11603;44.910;8.630;2023-02-16T00:41:22;101856.19;;;9.17;100.00
22872;BME280;11603;44.910;8.630;2023-02-16T00:44:42;101850.44;;;9.04;100.00
22872;BME280;11603;44.910;8.630;2023-02-16T00:47:27;101850.16;;;8.87;100.00
22872;BME280;11603;44.910;8.630;2023-02-16T00:49:55;101852.06;;;8.83;100.00
22872;BME280;11603;44.910;8.630;2023-02-16T00:52:33;101845.81;;;8.84;100.00
22872;BME280;11603;44.910;8.630;2023-02-16T00:55:02;101854.00;;;8.78;100.00
22872;BME280;11603;44.910;8.630;2023-02-16T00:57:32;101858.47;;;8.78;100.00
22872;BME280;11603;44.910;8.630;2023-02-16T01:00:05;101862.22;;;8.72;100.00
22872;BME280;11603;44.910;8.630;2023-02-16T01:02:31;101861.34;;;8.72;100.00
22872;BME280;11603;44.910;8.630;2023-02-16T01:04:57;101857.94;;;8.68;100.00
22872;BME280;11603;44.910;8.630;2023-02-16T01:07:22;101862.25;;;8.71;100.00
22872;BME280;11603;44.910;8.630;2023-02-16T01:10:06;101864.00;;;8.72;100.00
22872;BME280;11603;44.910;8.630;2023-02-16T01:12:51;101864.84;;;8.74;100.00
22872;BME280;11603;44.910;8.630;2023-02-16T01:15:18;101861.47;;;8.69;100.00
22872;BME280;11603;44.910;8.630;2023-02-16T01:17:46;101859.00;;;8.63;100.00
22872;BME280;11603;44.910;8.630;2023-02-16T01:20:16;101856.41;;;8.60;100.00
22872;BME280;11603;44.910;8.630;2023-02-16T01:22:43;101864.38;;;8.61;100.00
22872;BME280;11603;44.910;8.630;2023-02-16T01:25:09;101850.13;;;8.62;100.00
22872;BME280;11603;44.910;8.630;2023-02-16T01:27:38;101856.25;;;8.64;100.00
22872;BME280;11603;44.910;8.630;2023-02-16T01:30:12;101857.25;;;8.62;100.00
22872;BME280;11603;44.910;8.630;2023-02-16T01:32:38;101851.19;;;8.57;100.00
22872;BME280;11603;44.910;8.630;2023-02-16T01:35:06;101851.41;;;8.50;100.00
22872;BME280;11603;44.910;8.630;2023-02-16T01:37:32;101844.31;;;8.49;100.00
22872;BME280;11603;44.910;8.630;2023-02-16T01:39:57;101844.38;;;8.48;100.00
22872;BME280;11603;44.910;8.630;2023-02-16T01:42:35;101848.94;;;8.44;100.00
22872;BME280;11603;44.910;8.630;2023-02-16T01:45:13;101849.13;;;8.38;100.00
22872;BME280;11603;44.910;8.630;2023-02-16T01:47:50;101843.03;;;8.35;100.00
22872;BME280;11603;44.910;8.630;2023-02-16T01:50:26;101841.34;;;8.32;100.00
22872;BME280;11603;44.910;8.630;2023-02-16T01:53:01;101842.41;;;8.27;100.00
22872;BME280;11603;44.910;8.630;2023-02-16T01:55:36;101841.59;;;8.23;100.00
22872;BME280;11603;44.910;8.630;2023-02-16T01:58:13;101834.75;;;8.16;100.00
22872;BME280;11603;44.910;8.630;2023-02-16T02:03:33;101828.00;;;8.04;100.00
22872;BME280;11603;44.910;8.630;2023-02-16T02:06:21;101817.69;;;7.94;100.00
22872;BME280;11603;44.910;8.630;2023-02-16T02:08:55;101823.03;;;7.94;100.00
22872;BME280;11603;44.910;8.630;2023-02-16T02:11:32;101823.09;;;7.91;100.00
22872;BME280;11603;44.910;8.630;2023-02-16T02:14:11;101819.56;;;7.90;100.00
22872;BME280;11603;44.910;8.630;2023-02-16T02:16:38;101815.84;;;7.96;100.00
22872;BME280;11603;44.910;8.630;2023-02-16T02:19:04;101823.78;;;7.97;100.00
22872;BME280;11603;44.910;8.630;2023-02-16T02:27:38;101816.44;;;7.78;100.00
22872;BME280;11603;44.910;8.630;2023-02-16T02:30:11;101818.41;;;7.71;100.00
22872;BME280;11603;44.910;8.630;2023-02-16T02:46:32;101814.50;;;7.24;100.00
22872;BME280;11603;44.910;8.630;2023-02-16T02:49:01;101820.69;;;7.24;100.00
22872;BME280;11603;44.910;8.630;2023-02-16T02:51:27;101820.53;;;7.31;100.00
22872;BME280;11603;44.910;8.630;2023-02-16T03:00:33;101809.31;;;7.19;100.00
22872;BME280;11603;44.910;8.630;2023-02-16T03:03:29;101807.91;;;7.06;100.00
22872;BME280;11603;44.910;8.630;2023-02-16T03:08:30;101812.28;;;6.76;100.00
22872;BME280;11603;44.910;8.630;2023-02-16T03:11:02;101809.63;;;6.76;100.00
22872;BME280;11603;44.910;8.630;2023-02-16T03:13:56;101806.66;;;6.87;100.00
22872;BME280;11603;44.910;8.630;2023-02-16T03:16:28;101800.88;;;7.04;100.00
22872;BME280;11603;44.910;8.630;2023-02-16T03:18:56;101804.13;;;7.15;100.00
22872;BME280;11603;44.910;8.630;2023-02-16T03:21:41;101814.78;;;7.13;100.00
22872;BME280;11603;44.910;8.630;2023-02-16T03:24:28;101802.53;;;7.08;100.00
22872;BME280;11603;44.910;8.630;2023-02-16T03:27:16;101820.53;;;7.00;100.00
22872;BME280;11603;44.910;8.630;2023-02-16T03:30:03;101815.25;;;6.97;100.00
22872;BME280;11603;44.910;8.630;2023-02-16T03:32:31;101823.59;;;6.85;100.00
22872;BME280;11603;44.910;8.630;2023-02-16T03:34:56;101831.44;;;6.89;100.00
22872;BME280;11603;44.910;8.630;2023-02-16T03:37:22;101832.25;;;6.91;100.00
22872;BME280;11603;44.910;8.630;2023-02-16T03:39:48;101832.25;;;6.91;100.00
22872;BME280;11603;44.910;8.630;2023-02-16T03:42:36;101827.94;;;6.87;100.00
22872;BME280;11603;44.910;8.630;2023-02-16T03:45:03;101820.88;;;6.86;100.00
22872;BME280;11603;44.910;8.630;2023-02-16T03:47:28;101820.06;;;6.84;100.00
22872;BME280;11603;44.910;8.630;2023-02-16T03:49:54;101824.50;;;6.84;100.00
22872;BME280;11603;44.910;8.630;2023-02-16T03:52:19;101819.31;;;6.79;100.00
22872;BME280;11603;44.910;8.630;2023-02-16T03:54:45;101816.78;;;6.74;100.00
22872;BME280;11603;44.910;8.630;2023-02-16T03:57:10;101813.31;;;6.71;100.00
22872;BME280;11603;44.910;8.630;2023-02-16T03:59:36;101823.91;;;6.72;100.00
22872;BME280;11603;44.910;8.630;2023-02-16T04:02:01;101817.84;;;6.67;100.00
22872;BME280;11603;44.910;8.630;2023-02-16T04:04:27;101829.69;;;6.54;100.00
22872;BME280;11603;44.910;8.630;2023-02-16T04:06:52;101825.44;;;6.49;100.00
22872;BME280;11603;44.910;8.630;2023-02-16T04:09:17;101826.25;;;6.51;100.00
22872;BME280;11603;44.910;8.630;2023-02-16T04:11:43;101829.88;;;6.48;100.00
22872;BME280;11603;44.910;8.630;2023-02-16T04:14:27;101832.69;;;6.42;100.00
22872;BME280;11603;44.910;8.630;2023-02-16T04:16:53;101824.91;;;6.34;100.00
22872;BME280;11603;44.910;8.630;2023-02-16T04:19:20;101828.72;;;6.23;100.00
22872;BME280;11603;44.910;8.630;2023-02-16T04:21:48;101832.72;;;6.05;100.00
22872;BME280;11603;44.910;8.630;2023-02-16T04:24:13;101835.41;;;6.04;100.00
22872;BME280;11603;44.910;8.630;2023-02-16T04:26:39;101828.28;;;6.06;100.00
22872;BME280;11603;44.910;8.630;2023-02-16T04:29:04;101827.25;;;6.11;100.00
22872;BME280;11603;44.910;8.630;2023-02-16T04:31:30;101827.16;;;6.16;100.00
22872;BME280;11603;44.910;8.630;2023-02-16T04:33:55;101826.41;;;6.09;100.00
22872;BME280;11603;44.910;8.630;2023-02-16T04:36:21;101828.13;;;6.12;100.00
22872;BME280;11603;44.910;8.630;2023-02-16T04:38:46;101825.75;;;6.00;100.00
22872;BME280;11603;44.910;8.630;2023-02-16T04:41:11;101828.66;;;5.89;100.00
22872;BME280;11603;44.910;8.630;2023-02-16T04:43:37;101821.69;;;5.83;100.00
22872;BME280;11603;44.910;8.630;2023-02-16T04:46:02;101827.75;;;5.90;100.00
22872;BME280;11603;44.910;8.630;2023-02-16T04:48:28;101831.03;;;6.01;100.00
22872;BME280;11603;44.910;8.630;2023-02-16T04:50:53;101826.63;;;6.00;100.00
22872;BME280;11603;44.910;8.630;2023-02-16T04:53:19;101832.97;;;5.94;100.00
22872;BME280;11603;44.910;8.630;2023-02-16T04:55:46;101836.66;;;5.87;100.00
22872;BME280;11603;44.910;8.630;2023-02-16T04:58:12;101836.88;;;5.77;100.00
22872;BME280;11603;44.910;8.630;2023-02-16T05:00:37;101838.84;;;5.69;100.00
22872;BME280;11603;44.910;8.630;2023-02-16T05:03:03;101843.41;;;5.61;100.00
22872;BME280;11603;44.910;8.630;2023-02-16T05:05:28;101844.41;;;5.55;100.00
22872;BME280;11603;44.910;8.630;2023-02-16T05:07:57;101843.47;;;5.59;100.00
22872;BME280;11603;44.910;8.630;2023-02-16T05:10:22;101840.84;;;5.58;100.00
22872;BME280;11603;44.910;8.630;2023-02-16T05:12:48;101840.03;;;5.54;100.00
22872;BME280;11603;44.910;8.630;2023-02-16T05:15:32;101837.31;;;5.57;100.00
22872;BME280;11603;44.910;8.630;2023-02-16T05:17:57;101838.97;;;5.61;100.00
22872;BME280;11603;44.910;8.630;2023-02-16T05:20:23;101838.09;;;5.62;100.00
22872;BME280;11603;44.910;8.630;2023-02-16T05:23:08;101841.72;;;5.58;100.00
22872;BME280;11603;44.910;8.630;2023-02-16T05:25:33;101852.31;;;5.60;100.00
22872;BME280;11603;44.910;8.630;2023-02-16T05:27:59;101847.94;;;5.57;100.00
22872;BME280;11603;44.910;8.630;2023-02-16T05:30:24;101849.00;;;5.48;100.00
22872;BME280;11603;44.910;8.630;2023-02-16T05:32:50;101844.69;;;5.43;100.00
22872;BME280;11603;44.910;8.630;2023-02-16T05:35:15;101850.09;;;5.38;100.00
22872;BME280;11603;44.910;8.630;2023-02-16T05:37:41;101848.19;;;5.45;100.00
22872;BME280;11603;44.910;8.630;2023-02-16T05:40:07;101848.13;;;5.48;100.00
22872;BME280;11603;44.910;8.630;2023-02-16T05:42:32;101847.25;;;5.47;100.00
22872;BME280;11603;44.910;8.630;2023-02-16T05:44:58;101851.75;;;5.44;100.00
22872;BME280;11603;44.910;8.630;2023-02-16T05:47:23;101850.94;;;5.40;100.00
22872;BME280;11603;44.910;8.630;2023-02-16T05:49:49;101849.22;;;5.38;100.00
22872;BME280;11603;44.910;8.630;2023-02-16T05:52:14;101846.63;;;5.35;100.00
22872;BME280;11603;44.910;8.630;2023-02-16T05:54:40;101859.88;;;5.35;100.00
22872;BME280;11603;44.910;8.630;2023-02-16T05:57:05;101850.16;;;5.35;100.00
22872;BME280;11603;44.910;8.630;2023-02-16T05:59:31;101852.75;;;5.38;100.00
22872;BME280;11603;44.910;8.630;2023-02-16T06:01:56;101857.28;;;5.33;100.00
22872;BME280;11603;44.910;8.630;2023-02-16T06:04:22;101851.94;;;5.35;100.00
22872;BME280;11603;44.910;8.630;2023-02-16T06:06:47;101841.22;;;5.39;100.00
22872;BME280;11603;44.910;8.630;2023-02-16T06:09:13;101850.88;;;5.43;100.00
22872;BME280;11603;44.910;8.630;2023-02-16T06:11:38;101850.88;;;5.43;100.00
22872;BME280;11603;44.910;8.630;2023-02-16T06:14:07;101852.53;;;5.49;100.00
22872;BME280;11603;44.910;8.630;2023-02-16T06:16:33;101860.41;;;5.53;100.00
22872;BME280;11603;44.910;8.630;2023-02-16T06:19:00;101873.78;;;5.47;100.00
22872;BME280;11603;44.910;8.630;2023-02-16T06:21:26;101856.91;;;5.50;100.00
22872;BME280;11603;44.910;8.630;2023-02-16T06:23:52;101865.84;;;5.46;100.00
22872;BME280;11603;44.910;8.630;2023-02-16T06:26:17;101856.09;;;5.48;100.00
22872;BME280;11603;44.910;8.630;2023-02-16T06:28:43;101870.25;;;5.48;100.00
22872;BME280;11603;44.910;8.630;2023-02-16T06:31:09;101869.25;;;5.52;100.00
22872;BME280;11603;44.910;8.630;2023-02-16T06:33:34;101872.72;;;5.56;100.00
22872;BME280;11603;44.910;8.630;2023-02-16T06:35:59;101880.56;;;5.62;100.00
22872;BME280;11603;44.910;8.630;2023-02-16T06:38:25;101884.06;;;5.64;100.00
22872;BME280;11603;44.910;8.630;2023-02-16T06:40:52;101882.31;;;5.63;100.00
22872;BME280;11603;44.910;8.630;2023-02-16T06:43:17;101876.03;;;5.66;100.00
22872;BME280;11603;44.910;8.630;2023-02-16T06:45:43;101887.63;;;5.62;100.00
22872;BME280;11603;44.910;8.630;2023-02-16T06:48:08;101884.84;;;5.68;100.00
22872;BME280;11603;44.910;8.630;2023-02-16T06:50:34;101886.72;;;5.64;100.00
22872;BME280;11603;44.910;8.630;2023-02-16T06:52:59;101885.75;;;5.67;100.00
22872;BME280;11603;44.910;8.630;2023-02-16T06:55:25;101893.69;;;5.70;100.00
22872;BME280;11603;44.910;8.630;2023-02-16T06:57:50;101901.63;;;5.70;100.00
22872;BME280;11603;44.910;8.630;2023-02-16T07:00:16;101898.00;;;5.74;100.00
22872;BME280;11603;44.910;8.630;2023-02-16T07:02:41;101898.00;;;5.74;100.00
22872;BME280;11603;44.910;8.630;2023-02-16T07:05:08;101893.47;;;5.79;100.00
22872;BME280;11603;44.910;8.630;2023-02-16T07:07:34;101898.81;;;5.77;100.00
22872;BME280;11603;44.910;8.630;2023-02-16T07:10:00;101906.66;;;5.82;100.00
22872;BME280;11603;44.910;8.630;2023-02-16T07:12:27;101907.34;;;5.93;100.00
22872;BME280;11603;44.910;8.630;2023-02-16T07:14:53;101907.28;;;5.96;100.00
22872;BME280;11603;44.910;8.630;2023-02-16T07:17:19;101904.59;;;5.97;100.00
22872;BME280;11603;44.910;8.630;2023-02-16T07:19:44;101912.41;;;6.04;100.00
22872;BME280;11603;44.910;8.630;2023-02-16T07:22:10;101914.81;;;6.16;100.00
22872;BME280;11603;44.910;8.630;2023-02-16T07:24:35;101916.81;;;6.06;100.00
22872;BME280;11603;44.910;8.630;2023-02-16T07:27:01;101913.41;;;6.00;100.00
22872;BME280;11603;44.910;8.630;2023-02-16T07:29:29;101922.47;;;5.89;100.00
22872;BME280;11603;44.910;8.630;2023-02-16T07:31:54;101921.41;;;5.98;100.00
22872;BME280;11603;44.910;8.630;2023-02-16T07:34:22;101921.25;;;6.06;100.00
22872;BME280;11603;44.910;8.630;2023-02-16T07:36:47;101916.72;;;6.09;100.00
22872;BME280;11603;44.910;8.630;2023-02-16T07:39:13;101924.53;;;6.17;100.00
22872;BME280;11603;44.910;8.630;2023-02-16T07:41:39;101929.38;;;6.36;100.00
22872;BME280;11603;44.910;8.630;2023-02-16T07:44:06;101930.91;;;6.47;100.00
22872;BME280;11603;44.910;8.630;2023-02-16T07:46:33;101929.63;;;6.63;100.00
22872;BME280;11603;44.910;8.630;2023-02-16T07:48:58;101922.72;;;6.56;100.00
22872;BME280;11603;44.910;8.630;2023-02-16T07:51:27;101926.25;;;6.56;100.00
22872;BME280;11603;44.910;8.630;2023-02-16T07:53:52;101926.00;;;6.30;100.00
22872;BME280;11603;44.910;8.630;2023-02-16T07:58:44;101934.59;;;6.41;100.00
22872;BME280;11603;44.910;8.630;2023-02-16T08:01:12;101935.97;;;6.57;100.00
22872;BME280;11603;44.910;8.630;2023-02-16T08:03:39;101934.56;;;6.78;100.00
22872;BME280;11603;44.910;8.630;2023-02-16T08:06:05;101930.44;;;6.65;100.00
22872;BME280;11603;44.910;8.630;2023-02-16T08:08:31;101928.66;;;6.67;100.00
22872;BME280;11603;44.910;8.630;2023-02-16T08:10:57;101925.59;;;6.82;100.00
22872;BME280;11603;44.910;8.630;2023-02-16T08:13:22;101920.50;;;6.74;100.00
22872;BME280;11603;44.910;8.630;2023-02-16T08:15:48;101918.72;;;6.73;100.00
22872;BME280;11603;44.910;8.630;2023-02-16T08:18:14;101925.28;;;6.94;100.00
22872;BME280;11603;44.910;8.630;2023-02-16T08:20:40;101926.06;;;6.98;100.00
22872;BME280;11603;44.910;8.630;2023-02-16T08:23:06;101937.59;;;6.98;100.00
22872;BME280;11603;44.910;8.630;2023-02-16T08:25:35;101938.06;;;7.14;100.00
22872;BME280;11603;44.910;8.630;2023-02-16T08:28:01;101947.09;;;7.08;100.00
22872;BME280;11603;44.910;8.630;2023-02-16T08:30:27;101948.44;;;7.24;100.00
22872;BME280;11603;44.910;8.630;2023-02-16T08:32:53;101955.66;;;7.19;100.00
22872;BME280;11603;44.910;8.630;2023-02-16T08:35:21;101954.66;;;7.23;100.00
22872;BME280;11603;44.910;8.630;2023-02-16T08:37:46;101950.25;;;7.22;100.00
22872;BME280;11603;44.910;8.630;2023-02-16T08:40:12;101960.72;;;7.29;100.00
22872;BME280;11603;44.910;8.630;2023-02-16T08:42:38;101958.59;;;7.43;100.00
22872;BME280;11603;44.910;8.630;2023-02-16T08:45:05;101960.13;;;7.51;100.00
22872;BME280;11603;44.910;8.630;2023-02-16T08:47:31;101954.16;;;7.74;100.00
22872;BME280;11603;44.910;8.630;2023-02-16T08:49:58;101956.28;;;7.92;100.00
22872;BME280;11603;44.910;8.630;2023-02-16T08:52:23;101952.38;;;8.04;100.00
22872;BME280;11603;44.910;8.630;2023-02-16T08:54:49;101953.13;;;8.09;100.00
22872;BME280;11603;44.910;8.630;2023-02-16T08:57:14;101950.75;;;8.28;100.00
22872;BME280;11603;44.910;8.630;2023-02-16T08:59:40;101952.59;;;8.55;100.00
22872;BME280;11603;44.910;8.630;2023-02-16T09:02:05;101962.34;;;8.56;100.00
22872;BME280;11603;44.910;8.630;2023-02-16T09:04:32;101964.91;;;8.85;100.00
22872;BME280;11603;44.910;8.630;2023-02-16T09:06:58;101967.72;;;9.09;100.00
22872;BME280;11603;44.910;8.630;2023-02-16T09:09:24;101962.88;;;9.45;100.00
22872;BME280;11603;44.910;8.630;2023-02-16T09:11:50;101956.13;;;9.59;100.00
22872;BME280;11603;44.910;8.630;2023-02-16T09:14:17;101959.63;;;9.85;100.00
22872;BME280;11603;44.910;8.630;2023-02-16T09:16:43;101954.53;;;10.02;100.00
22872;BME280;11603;44.910;8.630;2023-02-16T09:19:13;101958.25;;;10.21;100.00
22872;BME280;11603;44.910;8.630;2023-02-16T09:21:40;101957.94;;;10.52;100.00
22872;BME280;11603;44.910;8.630;2023-02-16T09:24:06;101953.53;;;10.73;100.00
22872;BME280;11603;44.910;8.630;2023-02-16T09:26:35;101949.09;;;10.93;100.00
22872;BME280;11603;44.910;8.630;2023-02-16T09:29:03;101950.66;;;10.99;100.00
22872;BME280;11603;44.910;8.630;2023-02-16T09:31:31;101956.38;;;11.10;100.00
22872;BME280;11603;44.910;8.630;2023-02-16T09:34:06;101957.16;;;11.34;100.00
22872;BME280;11603;44.910;8.630;2023-02-16T09:36:33;101944.91;;;11.28;100.00
22872;BME280;11603;44.910;8.630;2023-02-16T09:38:59;101952.66;;;11.55;100.00
22872;BME280;11603;44.910;8.630;2023-02-16T09:42:03;101955.06;;;11.81;99.80
22872;BME280;11603;44.910;8.630;2023-02-16T09:47:25;101948.28;;;12.30;100.00
22872;BME280;11603;44.910;8.630;2023-02-16T09:49:54;101953.72;;;12.47;100.00
22872;BME280;11603;44.910;8.630;2023-02-16T09:55:31;101941.72;;;12.73;100.00
22872;BME280;11603;44.910;8.630;2023-02-16T10:00:51;101951.41;;;12.21;100.00
22872;BME280;11603;44.910;8.630;2023-02-16T10:06:50;101941.88;;;12.70;100.00
22872;BME280;11603;44.910;8.630;2023-02-16T10:08:54;101944.66;;;12.86;100.00
22872;BME280;11603;44.910;8.630;2023-02-16T10:17:26;101935.44;;;13.60;100.00
22872;BME280;11603;44.910;8.630;2023-02-16T10:20:00;101929.44;;;13.88;100.00
22872;BME280;11603;44.910;8.630;2023-02-16T10:22:44;101927.63;;;14.04;100.00
22872;BME280;11603;44.910;8.630;2023-02-16T10:25:27;101928.13;;;14.28;100.00
22872;BME280;11603;44.910;8.630;2023-02-16T10:28:13;101929.44;;;14.52;100.00
22872;BME280;11603;44.910;8.630;2023-02-16T10:30:45;101932.19;;;14.66;100.00
22872;BME280;11603;44.910;8.630;2023-02-16T10:35:59;101919.91;;;14.76;100.00
22872;BME280;11603;44.910;8.630;2023-02-16T10:39:05;101913.50;;;15.09;99.89
22872;BME280;11603;44.910;8.630;2023-02-16T10:41:41;101919.84;;;15.08;100.00
22872;BME280;11603;44.910;8.630;2023-02-16T10:44:12;101908.94;;;15.25;100.00
22872;BME280;11603;44.910;8.630;2023-02-16T10:46:45;101913.38;;;15.26;100.00
22872;BME280;11603;44.910;8.630;2023-02-16T10:49:13;101900.19;;;15.50;100.00
22872;BME280;11603;44.910;8.630;2023-02-16T10:51:40;101901.88;;;15.66;100.00
22872;BME280;11603;44.910;8.630;2023-02-16T10:54:19;101904.78;;;15.78;100.00
22872;BME280;11603;44.910;8.630;2023-02-16T10:56:51;101902.16;;;16.04;100.00
22872;BME280;11603;44.910;8.630;2023-02-16T10:59:44;101900.34;;;16.05;100.00
22872;BME280;11603;44.910;8.630;2023-02-16T11:02:19;101892.72;;;15.97;100.00
22872;BME280;11603;44.910;8.630;2023-02-16T11:04:49;101893.19;;;16.04;100.00
22872;BME280;11603;44.910;8.630;2023-02-16T11:07:27;101886.72;;;16.21;100.00
22872;BME280;11603;44.910;8.630;2023-02-16T11:09:57;101888.56;;;16.61;100.00
22872;BME280;11603;44.910;8.630;2023-02-16T11:12:39;101885.69;;;16.77;100.00
22872;BME280;11603;44.910;8.630;2023-02-16T11:17:58;101877.81;;;16.86;100.00
22872;BME280;11603;44.910;8.630;2023-02-16T11:20:32;101874.84;;;17.04;99.37
22872;BME280;11603;44.910;8.630;2023-02-16T11:23:12;101859.91;;;16.98;98.07
22872;BME280;11603;44.910;8.630;2023-02-16T11:25:37;101868.09;;;16.97;98.81
22872;BME280;11603;44.910;8.630;2023-02-16T11:28:03;101868.03;;;17.11;98.01
22872;BME280;11603;44.910;8.630;2023-02-16T11:30:34;101869.81;;;17.37;97.33
22872;BME280;11603;44.910;8.630;2023-02-16T11:33:09;101862.22;;;17.42;94.96
22872;BME280;11603;44.910;8.630;2023-02-16T11:35:43;101864.38;;;17.24;94.49
22872;BME280;11603;44.910;8.630;2023-02-16T11:38:32;101864.75;;;16.93;95.08
22872;BME280;11603;44.910;8.630;2023-02-16T11:40:59;101869.28;;;16.80;96.24
22872;BME280;11603;44.910;8.630;2023-02-16T11:43:29;101854.94;;;17.17;94.67
22872;BME280;11603;44.910;8.630;2023-02-16T11:45:58;101853.53;;;16.99;94.44
22872;BME280;11603;44.910;8.630;2023-02-16T11:48:30;101855.63;;;17.21;93.86
22872;BME280;11603;44.910;8.630;2023-02-16T11:51:05;101846.63;;;17.20;93.52
22872;BME280;11603;44.910;8.630;2023-02-16T11:53:33;101837.63;;;17.07;92.85
22872;BME280;11603;44.910;8.630;2023-02-16T11:56:22;101836.66;;;17.08;93.12
22872;BME280;11603;44.910;8.630;2023-02-16T12:10:37;101820.22;;;17.24;91.13
22872;BME280;11603;44.910;8.630;2023-02-16T12:13:27;101819.38;;;17.36;89.91
22872;BME280;11603;44.910;8.630;2023-02-16T12:16:12;101809.19;;;17.40;89.74
22872;BME280;11603;44.910;8.630;2023-02-16T12:21:40;101798.38;;;17.65;87.42
22872;BME280;11603;44.910;8.630;2023-02-16T12:27:30;101809.94;;;17.54;86.30
22872;BME280;11603;44.910;8.630;2023-02-16T12:38:29;101784.31;;;17.60;84.13
22872;BME280;11603;44.910;8.630;2023-02-16T12:41:07;101790.06;;;17.43;84.42
22872;BME280;11603;44.910;8.630;2023-02-16T12:43:44;101780.94;;;17.44;83.19
22872;BME280;11603;44.910;8.630;2023-02-16T12:48:53;101774.47;;;17.08;84.98
22872;BME280;11603;44.910;8.630;2023-02-16T12:51:37;101763.69;;;17.21;85.81
22872;BME280;11603;44.910;8.630;2023-02-16T12:54:21;101762.03;;;17.18;86.85
22872;BME280;11603;44.910;8.630;2023-02-16T12:56:58;101761.94;;;17.20;86.43
22872;BME280;11603;44.910;8.630;2023-02-16T12:59:36;101768.09;;;17.22;85.98
22872;BME280;11603;44.910;8.630;2023-02-16T13:02:08;101757.69;;;17.28;85.21
22872;BME280;11603;44.910;8.630;2023-02-16T13:04:44;101760.75;;;17.24;85.25
22872;BME280;11603;44.910;8.630;2023-02-16T13:07:37;101754.69;;;17.20;85.07
22872;BME280;11603;44.910;8.630;2023-02-16T13:12:43;101748.31;;;17.09;85.09
22872;BME280;11603;44.910;8.630;2023-02-16T13:15:12;101757.19;;;17.11;85.15
22872;BME280;11603;44.910;8.630;2023-02-16T13:17:47;101749.41;;;16.93;85.49
22872;BME280;11603;44.910;8.630;2023-02-16T13:20:18;101754.72;;;16.95;85.04
22872;BME280;11603;44.910;8.630;2023-02-16T13:25:58;101755.22;;;16.75;86.31
22872;BME280;11603;44.910;8.630;2023-02-16T13:39:24;101738.03;;;16.63;86.68
22872;BME280;11603;44.910;8.630;2023-02-16T13:41:56;101736.19;;;16.64;87.53
22872;BME280;11603;44.910;8.630;2023-02-16T13:44:39;101743.81;;;16.57;87.70
22872;BME280;11603;44.910;8.630;2023-02-16T13:47:06;101741.75;;;16.48;88.11
22872;BME280;11603;44.910;8.630;2023-02-16T13:49:40;101736.91;;;16.53;88.61
22872;BME280;11603;44.910;8.630;2023-02-16T13:54:57;101730.88;;;16.62;86.88
22872;BME280;11603;44.910;8.630;2023-02-16T14:00:34;101733.16;;;16.68;86.00
22872;BME280;11603;44.910;8.630;2023-02-16T14:05:40;101737.63;;;16.69;86.02
22872;BME280;11603;44.910;8.630;2023-02-16T14:13:19;101732.94;;;16.97;83.31
22872;BME280;11603;44.910;8.630;2023-02-16T14:15:52;101732.22;;;16.94;83.58
22872;BME280;11603;44.910;8.630;2023-02-16T14:21:02;101726.47;;;16.74;82.87
22872;BME280;11603;44.910;8.630;2023-02-16T14:23:30;101719.22;;;16.62;83.46
22872;BME280;11603;44.910;8.630;2023-02-16T14:26:06;101714.38;;;16.79;82.88
22872;BME280;11603;44.910;8.630;2023-02-16T14:31:09;101719.09;;;16.76;82.78
22872;BME280;11603;44.910;8.630;2023-02-16T14:33:58;101738.34;;;16.59;82.36
22872;BME280;11603;44.910;8.630;2023-02-16T14:36:26;101729.59;;;16.68;82.41
22872;BME280;11603;44.910;8.630;2023-02-16T14:38:57;101731.22;;;16.70;81.78
22872;BME280;11603;44.910;8.630;2023-02-16T14:41:41;101731.13;;;16.72;81.11
22872;BME280;11603;44.910;8.630;2023-02-16T14:47:05;101739.59;;;16.53;81.33
22872;BME280;11603;44.910;8.630;2023-02-16T14:49:48;101732.09;;;16.44;81.53
22872;BME280;11603;44.910;8.630;2023-02-16T14:55:21;101725.31;;;16.51;82.60
22872;BME280;11603;44.910;8.630;2023-02-16T15:00:42;101730.63;;;16.13;83.65
22872;BME280;11603;44.910;8.630;2023-02-16T15:03:17;101729.41;;;16.04;84.38
22872;BME280;11603;44.910;8.630;2023-02-16T15:05:56;101727.75;;;16.16;83.78
22872;BME280;11603;44.910;8.630;2023-02-16T15:08:26;101730.88;;;16.23;83.08
22872;BME280;11603;44.910;8.630;2023-02-16T15:11:00;101734.56;;;16.22;83.58
22872;BME280;11603;44.910;8.630;2023-02-16T15:13:31;101730.03;;;16.22;83.85
22872;BME280;11603;44.910;8.630;2023-02-16T15:16:02;101732.91;;;16.19;84.97
22872;BME280;11603;44.910;8.630;2023-02-16T15:18:33;101737.81;;;16.00;85.06